Terminal Aerodrome Forecast
Issued by NWS

Home | Current Version | Previous Version | Text Only | Print | Product List | Glossary On
Versions: 1 2 3 4 5 6 7 8 9 10 11 12 13 14 15 16 17 18 19
000
FTUS41 KRNK 290538
TAFBCB
TAF
KBCB 290538Z 2906/3006 00000KT P6SM BKN150
     FM291500 00000KT P6SM SCT030 OVC070
     FM291900 36004KT 6SM -RA BR OVC030
     FM292300 00000KT P6SM SCT025 OVC060=

USA.gov is the U.S. government's official web portal to all federal, state and local government web resources and services.